Overview Statistics Trail Chart Weather Telemetry Raw packets
 

This is the latest recevied weather packets stored in our database for station/object DH9SB-6. If no packets are shown the sender has not sent any weather packets the latest 10 day(s).

<< 16 17 18 19 20 21 22 >>
Time Temp. Humidity Pressure Rain* Wind** Luminosity Snow
1787902043 21.67° C 99% - 0 mm - - -
1787901466 21.67° C 99% - 0 mm - - -
1787900843 21.67° C 99% - 0 mm - - -
1787900268 20.56° C 99% - 0.51 mm - - -
1787899643 20.56° C 99% - 2.29 mm - - -
1787899066 20° C 99% - 3.81 mm - - -
1787898444 20° C 99% - 4.32 mm - - -
1787897867 20° C 99% - 4.32 mm - - -
1787897243 20° C 99% - 4.32 mm - - -
1787896667 20° C 99% - 3.56 mm - - -
1787896043 20° C 99% - 1.78 mm - - -
1787895467 20° C 99% - 0.25 mm - - -
1787894843 20° C 98% - 0 mm - - -
1787894267 20° C 98% - 0 mm - - -
1787893643 20° C 97% - 0 mm - - -
1787893068 20° C 97% - 0 mm - - -
1787892443 20° C 96% - 1.27 mm - - -
1787891870 20° C 96% - 3.3 mm - - -
1787891243 20° C 95% - 3.3 mm - - -
1787890667 20.56° C 94% - 3.3 mm - - -
1787890043 20.56° C 92% - 3.3 mm - - -
1787889466 20.56° C 89% - 3.3 mm - - -
1787888844 21.11° C 84% - 2.03 mm - - -
1787888317 21.67° C 80% - 0 mm - - -
1787887643 21.67° C 80% - 0 mm - - -

* Rain latest hour (hover to see other rain measurements)
** Current wind speed in m/s (hover to see current wind gust speed)